Time;durP1;ratioP1;P1;durP2;ratioP2;P2;SDS_P1;SDS_P2;PMS_P1;PMS_P2;Temp;Humidity;BMP_temperature;BMP_pressure;BME280_temperature;BME280_humidity;BME280_pressure;Samples;Min_cycle;Max_cycle;Signal;HPM_P1;HPM_P2
2022/04/26 03:36:11;;;;;;;14.40;7.20;;;4.30;80.80;;;;;;5029843;28;20045;-67
2022/04/26 03:38:41;;;;;;;19.30;7.18;;;4.30;80.50;;;;;;5013938;28;20040;-67
2022/04/26 03:41:07;;;;;;;15.18;7.70;;;4.30;80.50;;;;;;5047895;28;20044;-67
2022/04/26 03:43:33;;;;;;;19.60;7.20;;;4.30;80.60;;;;;;5023937;28;20052;-67
2022/04/26 03:45:59;;;;;;;16.87;7.33;;;4.30;80.60;;;;;;5008524;28;20123;-67
2022/04/26 03:48:25;;;;;;;13.90;6.70;;;4.30;80.50;;;;;;5018885;28;20075;-67
2022/04/26 03:50:51;;;;;;;18.70;7.30;;;4.30;80.60;;;;;;5048083;28;20508;-67
2022/04/26 03:53:16;;;;;;;19.33;7.33;;;4.30;80.90;;;;;;5027788;28;20086;-67
2022/04/26 03:55:42;;;;;;;14.13;6.20;;;4.30;80.90;;;;;;5010628;28;20041;-67
2022/04/26 03:58:08;;;;;;;15.73;6.83;;;4.30;80.80;;;;;;5044489;28;20076;-67
2022/04/26 04:00:34;;;;;;;14.97;7.27;;;4.40;80.90;;;;;;5010283;28;20337;-67
2022/04/26 04:03:00;;;;;;;16.40;6.23;;;4.40;81.00;;;;;;5037191;28;20471;-67
2022/04/26 04:05:26;;;;;;;14.85;6.13;;;4.40;80.90;;;;;;5033958;28;20084;-67
2022/04/26 04:07:51;;;;;;;18.10;7.20;;;4.30;80.70;;;;;;5030539;28;20137;-67
2022/04/26 04:10:17;;;;;;;17.67;6.50;;;4.30;80.60;;;;;;5047947;28;20048;-67
2022/04/26 04:12:43;;;;;;;15.07;6.40;;;4.30;80.70;;;;;;5050919;28;20151;-67
2022/04/26 04:15:09;;;;;;;14.60;7.07;;;4.30;80.80;;;;;;5039265;28;20129;-67
2022/04/26 04:17:35;;;;;;;16.13;6.13;;;4.30;80.90;;;;;;5032830;28;20033;-67
2022/04/26 04:20:01;;;;;;;17.00;6.40;;;4.30;80.90;;;;;;5015493;28;20044;-67
2022/04/26 04:22:27;;;;;;;14.32;5.95;;;4.30;80.80;;;;;;5024923;28;20064;-67
2022/04/26 04:24:53;;;;;;;15.37;6.30;;;4.40;80.70;;;;;;5033131;28;20090;-67
2022/04/26 04:27:18;;;;;;;17.57;7.43;;;4.40;80.90;;;;;;5031858;28;20048;-67
2022/04/26 04:29:44;;;;;;;19.80;6.53;;;4.40;80.70;;;;;;5029571;28;20080;-67
2022/04/26 04:32:10;;;;;;;15.30;6.10;;;4.40;80.80;;;;;;5015316;28;20056;-67
2022/04/26 04:34:36;;;;;;;11.52;5.63;;;4.40;80.70;;;;;;5017686;28;20501;-67
2022/04/26 04:37:02;;;;;;;15.87;6.20;;;4.50;81.00;;;;;;5042958;28;20037;-67
2022/04/26 04:39:28;;;;;;;17.05;7.00;;;4.50;81.00;;;;;;5032152;28;20094;-67
2022/04/26 04:41:54;;;;;;;22.40;6.50;;;4.50;80.90;;;;;;5050817;28;20072;-67
2022/04/26 04:44:21;;;;;;;17.10;6.57;;;4.50;80.80;;;;;;5044821;28;20135;-67
2022/04/26 04:46:47;;;;;;;14.48;6.25;;;4.60;80.90;;;;;;5044905;28;20044;-67
2022/04/26 04:49:14;;;;;;;12.65;6.50;;;4.60;80.80;;;;;;5025875;28;20486;-67
2022/04/26 04:51:39;;;;;;;15.98;6.53;;;4.60;80.60;;;;;;5030306;28;20049;-67
2022/04/26 04:54:05;;;;;;;15.83;6.80;;;4.60;80.60;;;;;;5046291;28;20481;-67
2022/04/26 04:56:31;;;;;;;14.53;6.27;;;4.70;80.60;;;;;;5034850;28;20075;-67
2022/04/26 04:58:57;;;;;;;15.55;6.13;;;4.70;80.60;;;;;;5034621;28;20489;-68
2022/04/26 05:01:23;;;;;;;18.97;6.83;;;4.70;80.60;;;;;;5040243;28;20048;-68
2022/04/26 05:03:51;;;;;;;15.38;6.65;;;4.70;80.60;;;;;;5029017;28;20123;-68
2022/04/26 05:06:16;;;;;;;15.75;6.95;;;4.70;80.50;;;;;;5023212;28;20048;-68
2022/04/26 05:08:43;;;;;;;11.67;6.33;;;4.70;80.60;;;;;;5046253;28;20556;-68
2022/04/26 05:11:10;;;;;;;15.77;6.82;;;4.80;80.60;;;;;;5042223;28;20044;-68
2022/04/26 05:13:36;;;;;;;15.93;6.72;;;4.90;80.70;;;;;;5041423;28;20120;-68
2022/04/26 05:16:02;;;;;;;13.60;6.35;;;5.00;80.60;;;;;;5050436;28;20040;-68
2022/04/26 05:18:28;;;;;;;14.93;6.82;;;5.00;80.40;;;;;;5043354;28;20037;-68
2022/04/26 05:20:54;;;;;;;17.30;6.78;;;5.00;80.30;;;;;;5029196;28;20041;-68
2022/04/26 05:26:05;;;;;;;14.68;6.95;;;5.10;80.10;;;;;;5049930;28;20117;-68
2022/04/26 05:28:31;;;;;;;17.40;7.03;;;5.10;80.30;;;;;;5048603;28;20263;-68
2022/04/26 05:30:57;;;;;;;16.63;6.63;;;5.20;80.20;;;;;;5011737;28;20131;-68
2022/04/26 05:33:24;;;;;;;15.40;6.40;;;5.20;80.20;;;;;;5040422;28;20075;-67
2022/04/26 05:35:50;;;;;;;14.80;6.63;;;5.40;80.40;;;;;;5050295;28;20313;-67
2022/04/26 05:38:17;;;;;;;13.27;6.47;;;5.50;80.20;;;;;;5026744;28;20139;-67
2022/04/26 05:40:43;;;;;;;20.70;7.35;;;5.60;80.10;;;;;;5042999;28;20041;-67
2022/04/26 05:43:09;;;;;;;19.98;6.70;;;5.70;79.80;;;;;;5022410;28;20093;-67
2022/04/26 05:45:34;;;;;;;10.87;6.10;;;5.70;79.70;;;;;;5050626;28;20178;-68
2022/04/26 05:48:00;;;;;;;15.80;6.30;;;5.80;79.50;;;;;;5050487;28;20287;-68
2022/04/26 05:50:26;;;;;;;11.00;6.30;;;5.80;79.50;;;;;;5048097;28;20052;-68
2022/04/26 05:52:52;;;;;;;17.10;6.90;;;5.90;79.30;;;;;;5049664;28;20055;-68
2022/04/26 05:55:17;;;;;;;12.13;6.50;;;5.90;79.20;;;;;;5023956;28;20044;-68
2022/04/26 05:57:44;;;;;;;12.83;5.90;;;6.00;79.10;;;;;;5045859;28;20505;-68
2022/04/26 06:00:13;;;;;;;17.13;6.63;;;6.00;79.00;;;;;;5032941;28;20464;-68
2022/04/26 06:02:40;;;;;;;13.13;6.00;;;6.10;79.00;;;;;;5038856;28;20048;-68
2022/04/26 06:05:05;;;;;;;14.07;6.80;;;6.20;78.70;;;;;;5042612;28;20091;-68
2022/04/26 06:07:31;;;;;;;13.93;6.13;;;6.30;78.60;;;;;;5047343;28;20045;-68
2022/04/26 06:09:57;;;;;;;14.00;6.50;;;6.30;78.50;;;;;;4999750;28;20492;-68
2022/04/26 06:12:26;;;;;;;11.27;5.80;;;6.40;78.30;;;;;;5031703;28;20425;-68
2022/04/26 06:15:01;;;;;;;9.93;6.05;;;6.40;78.30;;;;;;5040938;28;20413;-68
2022/04/26 06:17:27;;;;;;;13.38;5.10;;;6.60;78.20;;;;;;5046879;28;20489;-68
2022/04/26 06:19:52;;;;;;;10.45;5.82;;;6.70;78.10;;;;;;5035300;28;20033;-68
2022/04/26 06:22:18;;;;;;;14.97;7.07;;;6.80;77.70;;;;;;5041569;28;20453;-68
2022/04/26 06:24:44;;;;;;;10.20;5.90;;;6.90;77.70;;;;;;5023420;28;20047;-68
2022/04/26 06:27:10;;;;;;;14.00;6.27;;;7.10;77.50;;;;;;5044098;28;20493;-68
2022/04/26 06:29:36;;;;;;;12.20;5.93;;;7.30;77.10;;;;;;5028306;28;20049;-68
2022/04/26 06:32:02;;;;;;;9.63;6.50;;;7.50;76.90;;;;;;5047476;28;20040;-68
2022/04/26 06:34:28;;;;;;;14.60;6.65;;;7.70;76.80;;;;;;5047852;28;20421;-68
2022/04/26 06:36:54;;;;;;;13.20;6.70;;;7.90;76.60;;;;;;5049007;28;20496;-68
2022/04/26 06:39:19;;;;;;;13.07;5.90;;;8.30;75.70;;;;;;5040795;28;20045;-68
2022/04/26 06:41:46;;;;;;;13.40;5.67;;;8.50;74.50;;;;;;5040074;28;20416;-68
2022/04/26 06:44:11;;;;;;;11.23;5.35;;;8.70;73.80;;;;;;5037936;28;20502;-68
2022/04/26 06:46:37;;;;;;;11.50;5.00;;;8.80;72.10;;;;;;5031048;28;20044;-68
2022/04/26 06:49:03;;;;;;;8.80;4.73;;;8.70;71.50;;;;;;5040640;28;20052;-68
2022/04/26 06:51:31;;;;;;;10.25;4.72;;;8.70;71.40;;;;;;5012426;28;20064;-68
2022/04/26 06:53:56;;;;;;;8.60;4.85;;;8.80;71.10;;;;;;5017105;28;20061;-68
2022/04/26 06:56:22;;;;;;;9.33;4.30;;;8.90;71.00;;;;;;5018181;28;20131;-68
2022/04/26 06:58:48;;;;;;;8.60;4.27;;;9.00;70.50;;;;;;5050568;28;20043;-68
2022/04/26 07:01:13;;;;;;;8.10;3.40;;;9.00;70.10;;;;;;5046282;28;20055;-68
2022/04/26 07:03:39;;;;;;;8.93;3.20;;;8.90;69.80;;;;;;5026600;28;20446;-68
2022/04/26 07:06:05;;;;;;;9.93;4.00;;;8.90;69.40;;;;;;5031918;28;20635;-68
2022/04/26 07:08:30;;;;;;;9.63;3.23;;;9.00;69.40;;;;;;5014754;28;20111;-68
2022/04/26 07:10:56;;;;;;;6.20;3.60;;;9.10;68.90;;;;;;5025026;28;20051;-68
2022/04/26 07:13:22;;;;;;;10.57;3.43;;;9.10;69.00;;;;;;5007053;28;20041;-68
2022/04/26 07:15:48;;;;;;;7.10;3.53;;;9.20;68.70;;;;;;5012623;28;20060;-68
2022/04/26 07:18:13;;;;;;;8.43;3.57;;;9.30;68.20;;;;;;5019430;28;20594;-68
2022/04/26 07:20:45;;;;;;;13.53;4.10;;;9.30;67.20;;;;;;5043468;28;20044;-68
2022/04/26 07:23:14;;;;;;;8.02;3.60;;;9.30;66.80;;;;;;5016080;28;20071;-68
2022/04/26 07:25:41;;;;;;;8.32;2.88;;;9.40;67.00;;;;;;5034007;28;20051;-68
2022/04/26 07:28:07;;;;;;;9.23;3.60;;;9.40;67.30;;;;;;5040886;28;20136;-68
2022/04/26 07:30:35;;;;;;;6.87;3.10;;;9.60;67.30;;;;;;5025455;28;20123;-68
2022/04/26 07:35:47;;;;;;;;;;;9.70;65.30;;;;;;5044836;28;20548;-68
2022/04/26 07:38:13;;;;;;;10.27;3.20;;;9.70;65.00;;;;;;5030925;28;20266;-69
2022/04/26 07:40:39;;;;;;;7.50;2.90;;;9.70;65.60;;;;;;5049349;28;20049;-68
2022/04/26 07:43:06;;;;;;;7.80;2.87;;;9.90;65.30;;;;;;5047274;28;20337;-68
2022/04/26 07:45:35;;;;;;;7.32;2.92;;;9.90;64.10;;;;;;5043464;28;20412;-68
2022/04/26 07:48:01;;;;;;;8.40;2.78;;;9.90;63.90;;;;;;5053270;28;20095;-68
2022/04/26 07:50:28;;;;;;;6.20;2.50;;;9.90;63.80;;;;;;5049466;28;20497;-68
2022/04/26 07:52:54;;;;;;;7.75;2.30;;;10.00;63.20;;;;;;5045155;28;20094;-69
2022/04/26 07:55:20;;;;;;;6.87;2.73;;;10.00;62.70;;;;;;5032885;28;20036;-69
2022/04/26 07:57:45;;;;;;;8.50;2.90;;;10.00;62.70;;;;;;5029975;28;20044;-69
2022/04/26 08:00:11;;;;;;;7.43;2.73;;;9.90;62.90;;;;;;5043131;28;20401;-69
2022/04/26 08:02:37;;;;;;;9.70;2.75;;;9.80;63.10;;;;;;5043303;28;20036;-69
2022/04/26 08:05:03;;;;;;;11.37;3.47;;;9.80;63.40;;;;;;5041621;28;20044;-69
2022/04/26 08:07:29;;;;;;;5.70;2.72;;;9.80;63.20;;;;;;5030723;28;20090;-69
2022/04/26 08:09:55;;;;;;;12.60;3.17;;;9.80;63.20;;;;;;5030835;28;20040;-69
2022/04/26 08:12:22;;;;;;;7.18;2.63;;;9.90;62.90;;;;;;5010208;28;20045;-69
2022/04/26 08:14:47;;;;;;;8.20;3.40;;;10.00;62.80;;;;;;5040813;28;20048;-69
2022/04/26 08:17:15;;;;;;;7.83;2.70;;;10.00;62.80;;;;;;5030104;28;20051;-69
2022/04/26 08:19:41;;;;;;;5.50;2.90;;;10.00;62.40;;;;;;5028366;28;20045;-69
2022/04/26 08:22:07;;;;;;;7.90;2.25;;;10.10;61.70;;;;;;5026230;28;20049;-70
2022/04/26 08:27:24;;;;;;;4.72;2.40;;;10.20;60.10;;;;;;5042726;28;20059;-69
2022/04/26 08:29:54;;;;;;;5.78;2.35;;;10.40;59.30;;;;;;5038897;28;20067;-69
2022/04/26 08:32:22;;;;;;;7.50;2.50;;;10.40;59.10;;;;;;5022231;28;20653;-69
2022/04/26 08:34:48;;;;;;;5.88;2.92;;;10.60;59.40;;;;;;5040328;28;20044;-69
2022/04/26 08:37:13;;;;;;;8.30;2.55;;;10.70;59.90;;;;;;5027630;28;20444;-69
2022/04/26 08:39:39;;;;;;;4.40;2.30;;;10.90;58.80;;;;;;5031716;28;20094;-69
2022/04/26 08:42:06;;;;;;;6.93;2.80;;;11.00;58.20;;;;;;5041183;28;20045;-69
2022/04/26 08:44:32;;;;;;;5.18;2.75;;;11.10;58.40;;;;;;5027866;28;20139;-70
2022/04/26 08:52:28;;;;;;;5.35;2.72;;;11.30;57.50;;;;;;5046282;28;20057;-69
2022/04/26 08:54:54;;;;;;;8.02;3.10;;;11.40;57.40;;;;;;5033189;28;20082;-69
2022/04/26 08:57:20;;;;;;;7.60;3.07;;;11.50;57.30;;;;;;5030236;28;20453;-69
2022/04/26 08:59:50;;;;;;;6.40;2.73;;;11.70;57.10;;;;;;5047764;28;20500;-69
2022/04/26 09:02:18;;;;;;;6.55;2.63;;;11.80;57.60;;;;;;5048972;28;20407;-70
2022/04/26 09:04:45;;;;;;;5.85;2.50;;;12.00;56.80;;;;;;5050923;28;20066;-69
2022/04/26 09:07:12;;;;;;;5.40;2.38;;;12.10;56.50;;;;;;5010019;28;20671;-68
2022/04/26 09:09:41;;;;;;;5.38;2.60;;;12.20;55.40;;;;;;5028669;28;20102;-68
2022/04/26 09:12:11;;;;;;;3.88;2.63;;;12.10;54.70;;;;;;5033257;28;20044;-69
2022/04/26 09:14:47;;;;;;;6.50;2.80;;;12.10;55.30;;;;;;5038285;28;20044;-69
2022/04/26 09:17:15;;;;;;;8.55;2.10;;;12.20;55.10;;;;;;5047787;28;20072;-68
2022/04/26 09:19:48;;;;;;;5.93;2.35;;;12.30;54.60;;;;;;5048689;28;20097;-68
2022/04/26 09:22:19;;;;;;;6.05;2.42;;;12.40;53.30;;;;;;5039649;28;20103;-68
2022/04/26 09:24:59;;;;;;;4.93;2.08;;;12.40;53.70;;;;;;5045007;28;20048;-69
2022/04/26 09:27:25;;;;;;;6.15;2.28;;;12.40;53.50;;;;;;5047086;28;20531;-69
2022/04/26 09:29:51;;;;;;;3.90;1.98;;;12.40;53.70;;;;;;5050246;28;20451;-68
2022/04/26 09:32:17;;;;;;;5.57;2.37;;;12.50;53.10;;;;;;5025693;28;20182;-68
2022/04/26 09:34:43;;;;;;;5.10;1.97;;;12.60;52.70;;;;;;5049654;28;20153;-68
2022/04/26 09:37:08;;;;;;;5.90;2.30;;;12.70;52.20;;;;;;5030084;28;20040;-68
2022/04/26 09:39:34;;;;;;;5.03;1.80;;;12.80;52.50;;;;;;5033780;28;20051;-68
2022/04/26 09:42:00;;;;;;;5.87;2.20;;;12.90;52.00;;;;;;5022847;28;20047;-69
2022/04/26 09:44:34;;;;;;;5.57;1.97;;;13.00;51.50;;;;;;5050366;28;20295;-69
2022/04/26 09:47:00;;;;;;;5.07;2.37;;;13.00;51.40;;;;;;5033496;28;20404;-69
2022/04/26 09:49:26;;;;;;;4.77;2.20;;;13.10;50.80;;;;;;5011939;28;20362;-69
2022/04/26 09:51:58;;;;;;;3.70;2.13;;;13.10;50.80;;;;;;5030394;28;20283;-69
2022/04/26 09:54:24;;;;;;;5.90;2.03;;;13.10;50.20;;;;;;5040920;28;20303;-69
2022/04/26 09:56:50;;;;;;;4.40;2.03;;;13.10;50.40;;;;;;5036733;28;20762;-69
2022/04/26 09:59:42;;;;;;;3.77;1.90;;;13.10;50.10;;;;;;5016792;28;20067;-69
2022/04/26 10:02:13;;;;;;;6.20;2.00;;;13.00;49.90;;;;;;5038481;28;20360;-69
2022/04/26 10:04:49;;;;;;;5.03;2.10;;;13.00;50.70;;;;;;5056157;28;20322;-69
2022/04/26 10:07:19;;;;;;;4.70;2.20;;;13.10;50.90;;;;;;5048415;28;20370;-69
2022/04/26 10:09:46;;;;;;;4.03;2.07;;;13.30;50.10;;;;;;5021867;28;20315;-69
2022/04/26 10:12:12;;;;;;;7.37;1.97;;;13.20;50.50;;;;;;5033159;28;20771;-69
2022/04/26 10:14:38;;;;;;;6.97;2.33;;;13.20;49.80;;;;;;5032311;28;20311;-69
2022/04/26 10:17:05;;;;;;;6.37;2.40;;;13.40;50.70;;;;;;5032780;28;20306;-69
2022/04/26 10:19:39;;;;;;;4.93;1.70;;;13.60;49.90;;;;;;5021754;28;20317;-69
2022/04/26 10:22:05;;;;;;;5.43;2.30;;;13.60;49.10;;;;;;5009790;28;20296;-69
2022/04/26 10:24:30;;;;;;;5.40;2.63;;;13.50;49.70;;;;;;5024791;28;20287;-69
2022/04/26 10:27:16;;;;;;;2.67;1.80;;;13.70;49.90;;;;;;5038076;28;20073;-69
2022/04/26 10:29:46;;;;;;;4.83;2.30;;;13.90;49.90;;;;;;5039470;28;20049;-69
2022/04/26 10:32:32;;;;;;;6.37;2.10;;;14.30;50.40;;;;;;5041834;28;20844;-69
2022/04/26 10:35:25;;;;;;;5.87;2.50;;;14.50;48.40;;;;;;5037599;28;20303;-69
2022/04/26 10:38:16;;;;;;;7.53;2.27;;;14.60;48.00;;;;;;5014814;28;20283;-69
2022/04/26 10:41:03;;;;;;;4.63;1.90;;;14.50;48.30;;;;;;4997848;28;20368;-69
2022/04/26 10:43:29;;;;;;;5.83;2.13;;;14.40;47.60;;;;;;5027428;28;20287;-69
2022/04/26 10:46:12;;;;;;;5.23;2.43;;;14.20;48.00;;;;;;5034245;28;20296;-69
2022/04/26 10:48:38;;;;;;;5.83;1.80;;;14.10;48.80;;;;;;5014388;28;20098;-69
2022/04/26 10:51:35;;;;;;;4.17;2.00;;;14.20;48.00;;;;;;5028897;28;20757;-69
2022/04/26 10:54:05;;;;;;;8.47;2.10;;;14.40;47.90;;;;;;5033403;28;20049;-69
2022/04/26 10:56:31;;;;;;;3.60;1.83;;;14.50;47.70;;;;;;5019148;28;20795;-69
2022/04/26 10:58:57;;;;;;;2.83;1.70;;;14.60;46.60;;;;;;5027071;28;20327;-69
2022/04/26 11:01:24;;;;;;;4.23;1.97;;;14.30;46.30;;;;;;5019195;28;20788;-69
2022/04/26 11:03:55;;;;;;;7.03;2.20;;;14.10;47.40;;;;;;5039028;28;20506;-68
2022/04/26 11:06:37;;;;;;;3.57;1.80;;;14.10;48.50;;;;;;5009913;28;20295;-69
2022/04/26 11:09:14;;;;;;;5.83;2.20;;;14.00;46.60;;;;;;5029130;28;20284;-69
2022/04/26 11:11:50;;;;;;;4.53;2.50;;;13.80;47.70;;;;;;5027751;28;20325;-69
2022/04/26 11:14:22;;;;;;;4.87;2.10;;;14.10;48.30;;;;;;5028920;28;20365;-69
2022/04/26 11:17:00;;;;;;;6.40;2.10;;;14.40;47.20;;;;;;5041326;28;20277;-69
2022/04/26 11:19:37;;;;;;;5.83;2.30;;;14.40;46.70;;;;;;5037817;28;20287;-69
2022/04/26 11:22:06;;;;;;;4.13;2.17;;;14.10;47.10;;;;;;5032427;28;20291;-69
2022/04/26 11:30:04;;;;;;;4.97;2.00;;;14.50;48.20;;;;;;5044921;28;20283;-69
2022/04/26 11:32:38;;;;;;;2.97;1.83;;;14.40;47.60;;;;;;5024568;28;20319;-69
2022/04/26 11:35:05;;;;;;;5.17;1.43;;;14.20;46.60;;;;;;5016586;28;20396;-69
2022/04/26 11:37:30;;;;;;;4.10;1.67;;;14.00;47.10;;;;;;5011661;28;20609;-69
2022/04/26 11:39:56;;;;;;;3.00;1.57;;;14.20;48.10;;;;;;5045552;28;20448;-69
2022/04/26 11:42:24;;;;;;;4.57;1.77;;;14.50;47.20;;;;;;5011451;28;20052;-69
2022/04/26 11:45:05;;;;;;;4.03;1.80;;;14.50;46.40;;;;;;5033366;28;20049;-69
2022/04/26 11:47:40;;;;;;;5.10;1.73;;;14.40;45.90;;;;;;5043981;28;20334;-69
2022/04/26 11:50:14;;;;;;;6.85;2.47;;;14.10;46.80;;;;;;5044856;28;20847;-69
2022/04/26 11:52:43;;;;;;;6.25;2.17;;;14.00;48.00;;;;;;5024924;28;20051;-69
2022/04/26 11:55:29;;;;;;;5.77;1.80;;;14.20;48.00;;;;;;5032632;28;20052;-69
2022/04/26 11:58:21;;;;;;;4.17;1.80;;;14.30;46.90;;;;;;5036906;28;20349;-69
2022/04/26 12:01:00;;;;;;;4.40;1.93;;;14.20;46.90;;;;;;5024796;28;20295;-69
2022/04/26 12:03:30;;;;;;;3.73;2.00;;;14.10;47.10;;;;;;5038426;28;20948;-69
2022/04/26 12:06:01;;;;;;;4.53;1.80;;;14.10;48.00;;;;;;5032968;28;20755;-69
2022/04/26 12:08:29;;;;;;;3.00;1.70;;;14.20;47.40;;;;;;5027871;28;20286;-69
2022/04/26 12:11:30;;;;;;;4.80;1.50;;;14.10;47.80;;;;;;5044049;28;20299;-69
2022/04/26 12:14:08;;;;;;;3.93;1.57;;;14.00;46.90;;;;;;5044178;28;20593;-69
2022/04/26 12:16:42;;;;;;;3.23;1.77;;;14.10;47.10;;;;;;5027050;28;20307;-69
2022/04/26 12:19:09;;;;;;;3.15;1.33;;;14.40;47.30;;;;;;5044413;28;20830;-69
2022/04/26 12:21:45;;;;;;;5.83;1.97;;;14.90;46.70;;;;;;5043846;28;20071;-69
2022/04/26 12:24:14;;;;;;;5.07;2.03;;;15.40;46.70;;;;;;5051735;28;20286;-69
2022/04/26 12:26:55;;;;;;;4.47;1.90;;;15.90;46.50;;;;;;5050184;28;20297;-69
2022/04/26 12:29:23;;;;;;;4.73;1.60;;;16.20;44.80;;;;;;5035372;28;20285;-69
2022/04/26 12:31:49;;;;;;;6.40;2.20;;;15.90;44.60;;;;;;5049061;28;20291;-69
2022/04/26 12:34:31;;;;;;;3.67;1.63;;;15.70;44.40;;;;;;5035173;28;20306;-69
2022/04/26 12:37:08;;;;;;;4.07;2.00;;;15.50;45.10;;;;;;5040034;28;20056;-69
2022/04/26 12:39:52;;;;;;;3.77;1.80;;;15.20;44.60;;;;;;5030398;28;20282;-69
2022/04/26 12:42:27;;;;;;;3.72;1.70;;;14.90;45.40;;;;;;5047869;28;20344;-69
2022/04/26 12:44:53;;;;;;;5.65;1.85;;;14.80;46.10;;;;;;5031064;28;20049;-69
2022/04/26 12:50:31;;;;;;;5.20;1.70;;;15.20;46.10;;;;;;5015241;28;20049;-69
2022/04/26 12:53:04;;;;;;;3.07;1.73;;;15.70;44.70;;;;;;5034552;28;20286;-69
2022/04/26 12:55:34;;;;;;;3.67;1.80;;;15.50;44.20;;;;;;5027427;28;20283;-69
2022/04/26 12:58:02;;;;;;;3.50;1.80;;;15.30;44.90;;;;;;5025631;28;20370;-69
2022/04/26 13:00:29;;;;;;;6.03;1.87;;;15.30;44.70;;;;;;5018400;28;20275;-69
2022/04/26 13:02:57;;;;;;;5.17;1.60;;;15.40;44.90;;;;;;5014749;28;20768;-69
2022/04/26 13:05:22;;;;;;;2.73;1.27;;;15.60;45.50;;;;;;5031617;28;20335;-70
2022/04/26 13:07:48;;;;;;;5.97;1.50;;;16.10;44.70;;;;;;5041059;28;20374;-69
2022/04/26 13:10:16;;;;;;;2.53;1.70;;;16.40;44.00;;;;;;5047951;28;20051;-69
2022/04/26 13:12:42;;;;;;;5.13;1.60;;;16.70;43.40;;;;;;5050662;28;20321;-69
2022/04/26 13:15:08;;;;;;;4.67;1.70;;;16.80;43.10;;;;;;5049760;28;20384;-69
2022/04/26 13:17:38;;;;;;;2.50;1.47;;;16.70;42.40;;;;;;5030435;28;20048;-69
2022/04/26 13:20:06;;;;;;;4.23;1.70;;;16.40;42.00;;;;;;5026585;28;20283;-69
2022/04/26 13:22:35;;;;;;;3.53;1.63;;;16.40;42.50;;;;;;5050270;28;20291;-69
2022/04/26 13:25:03;;;;;;;3.30;1.83;;;16.40;42.20;;;;;;5050462;28;20369;-69
2022/04/26 13:27:33;;;;;;;6.57;2.20;;;16.60;42.50;;;;;;5033858;28;20639;-70
2022/04/26 13:30:00;;;;;;;3.50;1.60;;;16.80;42.60;;;;;;5049794;28;20285;-70
2022/04/26 13:32:27;;;;;;;3.50;1.70;;;16.60;42.50;;;;;;5033430;28;20782;-70
2022/04/26 13:34:53;;;;;;;4.27;2.10;;;16.50;43.10;;;;;;5047365;28;20686;-70
2022/04/26 13:37:19;;;;;;;4.93;2.30;;;16.80;42.60;;;;;;5049140;28;20279;-69
2022/04/26 13:39:45;;;;;;;6.93;2.10;;;16.90;41.70;;;;;;5032592;28;20115;-69
2022/04/26 13:42:15;;;;;;;3.13;1.67;;;17.00;41.70;;;;;;5033168;28;20385;-69
2022/04/26 13:44:41;;;;;;;3.57;2.10;;;17.20;41.30;;;;;;5047706;28;20088;-69
2022/04/26 13:47:08;;;;;;;4.70;2.23;;;17.10;40.80;;;;;;5046296;28;20921;-69
2022/04/26 13:49:39;;;;;;;6.57;2.23;;;16.70;41.30;;;;;;5047385;28;20290;-69
2022/04/26 13:52:06;;;;;;;4.43;1.70;;;16.30;41.70;;;;;;5015982;28;20802;-69
2022/04/26 13:54:33;;;;;;;4.23;2.10;;;16.00;42.50;;;;;;5048481;28;20901;-69
2022/04/26 13:56:58;;;;;;;5.20;2.23;;;15.80;43.10;;;;;;5000001;28;20307;-69
2022/04/26 13:59:25;;;;;;;4.07;1.87;;;15.50;43.20;;;;;;5047341;28;20790;-69
2022/04/26 14:01:52;;;;;;;5.90;1.70;;;15.30;43.70;;;;;;5047785;28;20041;-69
2022/04/26 14:04:19;;;;;;;4.23;1.90;;;15.30;43.60;;;;;;5029733;28;20297;-69
2022/04/26 14:06:45;;;;;;;4.83;1.80;;;15.20;43.40;;;;;;5018453;28;20275;-69
2022/04/26 14:09:10;;;;;;;3.50;1.50;;;15.30;43.40;;;;;;5031659;28;20375;-69
2022/04/26 14:11:36;;;;;;;5.70;2.10;;;15.30;42.60;;;;;;5006629;28;20048;-69
2022/04/26 14:22:15;;;;;;;6.53;1.90;;;15.20;42.00;;;;;;5043016;28;20299;-69
2022/04/26 14:24:42;;;;;;;6.63;1.90;;;15.50;42.40;;;;;;5025288;28;20283;-69
2022/04/26 14:27:08;;;;;;;4.47;1.60;;;15.80;41.50;;;;;;5017523;28;20691;-69
2022/04/26 14:29:34;;;;;;;4.27;2.00;;;16.00;41.20;;;;;;5025821;28;20283;-69
2022/04/26 14:32:00;;;;;;;4.20;2.47;;;15.80;41.30;;;;;;5015713;28;20374;-69
2022/04/26 14:34:25;;;;;;;6.80;2.10;;;15.70;43.10;;;;;;5040343;28;20552;-69
2022/04/26 14:36:51;;;;;;;6.73;2.27;;;15.30;43.50;;;;;;5028368;28;20782;-69
2022/04/26 14:39:17;;;;;;;5.50;1.90;;;15.00;43.90;;;;;;5015988;28;20076;-69
2022/04/26 14:41:43;;;;;;;6.00;2.17;;;15.00;44.40;;;;;;5032399;28;20087;-69
2022/04/26 14:44:09;;;;;;;5.07;2.03;;;15.10;44.40;;;;;;5047448;28;20094;-69
2022/04/26 14:46:35;;;;;;;6.23;2.30;;;15.30;44.00;;;;;;5047541;28;20147;-69
2022/04/26 14:49:01;;;;;;;5.60;1.60;;;15.60;44.10;;;;;;5039465;28;20040;-69
2022/04/26 14:51:27;;;;;;;3.50;1.90;;;15.90;43.70;;;;;;5028946;28;20508;-69
2022/04/26 14:53:52;;;;;;;4.17;1.63;;;16.00;43.30;;;;;;5030175;28;20336;-69
2022/04/26 14:56:18;;;;;;;6.23;2.07;;;16.00;43.00;;;;;;5027831;28;20559;-70
2022/04/26 14:58:44;;;;;;;4.17;2.30;;;16.20;42.40;;;;;;5012177;28;20045;-70
2022/04/26 15:01:10;;;;;;;6.33;1.73;;;16.40;42.40;;;;;;5026736;28;20057;-70
2022/04/26 15:03:36;;;;;;;7.17;2.37;;;16.50;42.20;;;;;;5032387;28;20377;-70
2022/04/26 15:06:02;;;;;;;4.90;2.00;;;16.50;41.80;;;;;;5044519;28;20279;-70
2022/04/26 15:11:12;;;;;;;2.73;1.53;;;15.80;42.60;;;;;;5029211;28;20049;-69
2022/04/26 15:16:37;;;;;;;5.00;2.23;;;15.50;42.80;;;;;;5024921;28;20041;-70
2022/04/26 15:19:07;;;;;;;6.60;2.20;;;15.30;42.80;;;;;;5031533;28;20358;-69
2022/04/26 15:21:33;;;;;;;5.23;1.53;;;15.00;43.60;;;;;;5044976;28;20311;-69
2022/04/26 15:23:59;;;;;;;3.53;1.80;;;14.80;43.80;;;;;;5031195;28;20349;-69
2022/04/26 15:26:25;;;;;;;5.63;1.90;;;14.60;43.90;;;;;;5047403;28;20076;-69
2022/04/26 15:28:52;;;;;;;4.23;1.27;;;14.40;44.20;;;;;;5048584;28;20317;-69
2022/04/26 15:31:20;;;;;;;4.47;1.80;;;14.30;44.00;;;;;;5035738;28;20359;-70
2022/04/26 15:33:48;;;;;;;5.97;1.67;;;14.20;44.20;;;;;;5037174;28;20645;-70
2022/04/26 15:36:15;;;;;;;4.27;1.50;;;14.40;44.00;;;;;;5015293;28;20321;-69
2022/04/26 15:38:42;;;;;;;5.07;1.83;;;14.50;43.50;;;;;;5047951;28;20313;-69
2022/04/26 15:41:07;;;;;;;5.37;1.30;;;14.60;42.60;;;;;;5048942;28;20797;-70
2022/04/26 15:43:34;;;;;;;6.67;1.93;;;14.80;42.50;;;;;;5023697;28;20284;-70
2022/04/26 15:46:06;;;;;;;3.50;1.40;;;14.90;42.00;;;;;;5040049;28;20052;-70
2022/04/26 15:48:34;;;;;;;4.17;1.50;;;15.10;42.00;;;;;;5014094;28;20275;-70
2022/04/26 15:51:00;;;;;;;4.77;1.37;;;15.30;42.30;;;;;;5042685;28;20782;-71
2022/04/26 15:53:26;;;;;;;3.87;1.70;;;15.50;42.10;;;;;;5032497;28;20317;-71
2022/04/26 15:55:51;;;;;;;4.33;1.60;;;15.70;41.40;;;;;;4999465;28;20048;-71
2022/04/26 15:58:17;;;;;;;3.13;1.70;;;15.80;41.40;;;;;;5033835;28;20080;-70
2022/04/26 16:00:44;;;;;;;3.67;1.20;;;15.90;40.90;;;;;;5019633;28;20033;-70
2022/04/26 16:03:10;;;;;;;4.43;1.63;;;15.70;40.60;;;;;;5051856;28;20282;-70
2022/04/26 16:05:36;;;;;;;4.47;1.63;;;15.40;41.10;;;;;;5025816;28;20345;-70
2022/04/26 16:08:03;;;;;;;3.83;1.87;;;14.80;41.60;;;;;;5045000;28;20281;-70
2022/04/26 16:21:27;;;;;;;7.07;1.90;;;13.50;44.80;;;;;;5043082;28;20528;-70
2022/04/26 16:23:54;;;;;;;6.67;1.67;;;13.30;45.10;;;;;;5027435;28;20361;-70
2022/04/26 16:26:22;;;;;;;4.17;1.47;;;13.10;45.60;;;;;;5027454;28;20365;-70
2022/04/26 16:28:48;;;;;;;3.87;1.50;;;12.90;46.20;;;;;;5032873;28;20326;-69
2022/04/26 16:31:15;;;;;;;4.30;1.77;;;12.80;46.20;;;;;;5020180;28;20424;-69
2022/04/26 16:33:41;;;;;;;7.17;2.50;;;12.60;46.30;;;;;;5050915;28;20307;-69
2022/04/26 16:36:08;;;;;;;3.87;1.80;;;12.50;46.40;;;;;;5046193;28;20283;-69
2022/04/26 16:38:36;;;;;;;5.43;1.83;;;12.40;46.70;;;;;;5046900;28;20797;-69
2022/04/26 16:41:04;;;;;;;5.80;2.10;;;12.50;47.00;;;;;;5046202;28;20317;-69
2022/04/26 16:43:30;;;;;;;5.87;2.23;;;12.60;47.30;;;;;;5016365;28;20287;-70
2022/04/26 16:45:56;;;;;;;5.13;1.93;;;12.90;47.20;;;;;;5019984;28;20656;-70
2022/04/26 16:48:23;;;;;;;5.50;1.60;;;13.30;46.70;;;;;;5034832;28;20279;-70
2022/04/26 16:50:49;;;;;;;6.80;1.70;;;13.50;46.20;;;;;;5046402;28;20045;-70
2022/04/26 16:53:15;;;;;;;2.67;1.57;;;13.50;45.80;;;;;;4995533;28;20826;-70
2022/04/26 16:55:41;;;;;;;6.07;2.10;;;13.40;45.70;;;;;;5038435;28;20278;-69
2022/04/26 16:58:07;;;;;;;4.33;1.50;;;13.40;45.70;;;;;;5019940;28;20041;-69
2022/04/26 17:00:33;;;;;;;5.07;2.17;;;13.40;45.70;;;;;;5042079;28;20123;-69
2022/04/26 17:02:59;;;;;;;4.40;1.73;;;13.50;45.90;;;;;;5036842;28;20048;-69
2022/04/26 17:05:27;;;;;;;5.90;2.27;;;13.80;45.90;;;;;;5041085;28;20795;-69
2022/04/26 17:07:54;;;;;;;6.13;2.73;;;13.90;45.80;;;;;;5034691;28;20413;-70
2022/04/26 17:10:20;;;;;;;5.10;2.07;;;13.90;47.60;;;;;;5024487;28;20280;-70
2022/04/26 17:12:50;;;;;;;6.37;2.13;;;13.80;47.80;;;;;;5032491;28;20721;-70
2022/04/26 17:15:20;;;;;;;4.90;2.50;;;13.60;48.10;;;;;;5026755;28;20127;-70